Time;durP1;ratioP1;P1;durP2;ratioP2;P2;SDS_P1;SDS_P2;PMS_P1;PMS_P2;Temp;Humidity;BMP_temperature;BMP_pressure;BME280_temperature;BME280_humidity;BME280_pressure;Samples;Min_cycle;Max_cycle;Signal;HPM_P1;HPM_P2
2021/04/17 00:01:57;;;;;;;1.67;1.57;;;5.00;99.90;;;;;;5051090;28;20723;-71
2021/04/17 00:04:24;;;;;;;1.83;1.70;;;5.00;99.90;;;;;;5042868;28;20580;-71
2021/04/17 00:06:50;;;;;;;1.08;1.05;;;5.00;99.90;;;;;;5045905;28;20212;-71
2021/04/17 00:09:21;;;;;;;2.30;0.77;;;5.00;99.90;;;;;;5044754;28;20322;-70
2021/04/17 00:11:48;;;;;;;0.80;0.80;;;5.00;99.90;;;;;;5033660;28;20208;-71
2021/04/17 00:14:32;;;;;;;0.98;0.95;;;5.00;99.90;;;;;;5046378;28;20605;-70
2021/04/17 00:16:58;;;;;;;1.95;1.60;;;5.00;99.90;;;;;;5045340;28;20205;-71
2021/04/17 00:19:24;;;;;;;2.25;1.38;;;5.00;99.90;;;;;;5033609;28;20174;-72
2021/04/17 00:21:50;;;;;;;2.40;1.77;;;5.00;99.90;;;;;;5039368;28;20509;-70
2021/04/17 00:24:15;;;;;;;1.00;1.00;;;5.00;99.90;;;;;;5051744;28;20173;-71
2021/04/17 00:26:41;;;;;;;2.93;2.10;;;5.00;99.90;;;;;;5048662;28;20621;-70
2021/04/17 00:29:08;;;;;;;0.80;0.80;;;5.00;99.90;;;;;;5033470;28;20193;-71
2021/04/17 00:31:35;;;;;;;3.00;2.30;;;5.00;99.90;;;;;;5035780;28;20181;-70
2021/04/17 00:34:01;;;;;;;3.55;1.50;;;5.00;99.90;;;;;;5033152;28;20715;-72
2021/04/17 00:36:27;;;;;;;0.87;0.87;;;5.00;99.90;;;;;;5046700;28;20201;-71
2021/04/17 00:38:53;;;;;;;1.10;1.00;;;5.00;99.90;;;;;;5033272;28;20907;-71
2021/04/17 00:41:18;;;;;;;2.40;2.20;;;5.00;99.90;;;;;;5033430;28;20349;-72
2021/04/17 00:43:44;;;;;;;2.87;1.60;;;5.10;99.90;;;;;;5051726;28;20236;-70
2021/04/17 00:46:12;;;;;;;0.90;0.90;;;5.10;99.90;;;;;;5051818;28;20284;-71
2021/04/17 00:48:40;;;;;;;3.15;1.67;;;5.10;99.90;;;;;;5037051;28;20563;-72
2021/04/17 00:51:06;;;;;;;4.35;1.55;;;5.20;99.90;;;;;;5038477;28;20197;-72
2021/04/17 00:53:31;;;;;;;1.87;1.77;;;5.20;99.90;;;;;;5051727;28;20181;-71
2021/04/17 00:55:57;;;;;;;1.37;1.27;;;5.20;99.90;;;;;;5055643;28;20431;-71
2021/04/17 00:58:23;;;;;;;0.67;0.67;;;5.20;99.90;;;;;;5044132;28;20191;-71
2021/04/17 01:00:48;;;;;;;1.17;1.07;;;5.10;99.90;;;;;;5051349;28;20653;-71
2021/04/17 01:03:38;;;;;;;2.00;1.50;;;5.10;99.90;;;;;;5049075;28;20227;-71
2021/04/17 01:06:09;;;;;;;0.80;0.80;;;5.00;99.90;;;;;;5039413;28;20552;-70
2021/04/17 01:08:48;;;;;;;1.75;1.42;;;5.00;99.90;;;;;;5051362;28;20215;-70
2021/04/17 01:11:39;;;;;;;1.52;1.48;;;5.00;99.90;;;;;;5056918;28;20169;-71
2021/04/17 01:14:06;;;;;;;1.45;1.40;;;4.90;99.90;;;;;;5037951;28;20205;-71
2021/04/17 01:16:33;;;;;;;4.22;2.80;;;4.90;99.90;;;;;;5036986;28;20247;-71
2021/04/17 01:18:59;;;;;;;3.15;1.42;;;5.00;99.90;;;;;;5050280;28;20702;-70
2021/04/17 01:21:26;;;;;;;1.40;1.40;;;5.00;99.90;;;;;;5035667;28;20239;-71
2021/04/17 01:24:00;;;;;;;1.05;1.05;;;5.00;99.90;;;;;;5051101;28;20579;-72
2021/04/17 01:26:26;;;;;;;8.80;1.90;;;5.00;99.90;;;;;;5055878;28;20213;-71
2021/04/17 01:28:55;;;;;;;1.33;1.33;;;5.00;99.90;;;;;;5041871;28;20524;-70
2021/04/17 01:31:26;;;;;;;1.63;1.50;;;5.00;99.90;;;;;;5036567;28;20177;-71
2021/04/17 01:33:56;;;;;;;1.33;1.23;;;5.10;99.90;;;;;;5050113;28;20174;-71
2021/04/17 01:36:24;;;;;;;2.53;2.33;;;5.00;99.90;;;;;;5056428;28;20743;-71
2021/04/17 01:39:11;;;;;;;1.67;1.58;;;5.00;99.90;;;;;;5043059;28;20178;-70
2021/04/17 01:41:49;;;;;;;2.58;2.38;;;5.00;99.90;;;;;;5036268;28;20197;-72
2021/04/17 01:44:20;;;;;;;1.92;1.83;;;4.80;99.90;;;;;;5051849;28;20173;-71
2021/04/17 01:46:49;;;;;;;2.80;1.73;;;4.80;99.90;;;;;;5056164;28;20560;-71
2021/04/17 01:49:16;;;;;;;0.75;0.75;;;4.70;99.90;;;;;;5040451;28;20274;-70
2021/04/17 01:51:44;;;;;;;2.28;2.08;;;4.70;99.90;;;;;;5036231;28;20170;-70
2021/04/17 01:54:20;;;;;;;3.33;3.08;;;4.60;99.90;;;;;;5037893;28;20265;-70
2021/04/17 01:56:47;;;;;;;1.80;1.75;;;4.60;99.90;;;;;;5036188;28;20548;-70
2021/04/17 01:59:18;;;;;;;2.05;1.95;;;4.60;99.90;;;;;;5035816;28;20243;-71
2021/04/17 02:01:44;;;;;;;1.50;1.40;;;4.60;99.90;;;;;;5036205;28;20675;-71
2021/04/17 02:04:10;;;;;;;3.15;2.10;;;4.60;99.90;;;;;;5048579;28;20186;-71
2021/04/17 02:06:36;;;;;;;4.73;1.47;;;4.60;99.90;;;;;;5054633;28;20205;-71
2021/04/17 02:09:04;;;;;;;2.23;1.63;;;4.60;99.90;;;;;;5044019;28;20177;-70
2021/04/17 02:11:30;;;;;;;1.05;1.05;;;4.60;99.90;;;;;;5035965;28;20471;-71
2021/04/17 02:13:55;;;;;;;1.83;1.73;;;4.60;99.90;;;;;;5035333;28;20178;-70
2021/04/17 02:16:43;;;;;;;2.47;1.83;;;4.50;99.90;;;;;;5039848;28;20255;-71
2021/04/17 02:19:16;;;;;;;1.92;1.83;;;4.50;99.90;;;;;;5055582;28;20176;-68
2021/04/17 02:21:48;;;;;;;1.30;1.00;;;4.50;99.90;;;;;;5048366;28;20698;-70
2021/04/17 02:24:14;;;;;;;1.75;1.00;;;4.50;99.90;;;;;;5035277;28;20248;-70
2021/04/17 02:26:41;;;;;;;1.15;1.05;;;4.50;99.90;;;;;;5040981;28;20205;-71
2021/04/17 02:29:07;;;;;;;0.93;0.93;;;4.50;99.90;;;;;;5055263;28;20501;-70
2021/04/17 02:31:33;;;;;;;3.45;2.15;;;4.40;99.90;;;;;;5050530;28;20178;-71
2021/04/17 02:33:59;;;;;;;2.38;2.10;;;4.50;99.90;;;;;;5047997;28;20195;-70
2021/04/17 02:36:25;;;;;;;1.30;1.30;;;4.40;99.90;;;;;;5052136;28;20210;-71
2021/04/17 02:38:51;;;;;;;2.50;2.40;;;4.50;99.90;;;;;;5035360;28;20252;-69
2021/04/17 02:41:17;;;;;;;1.57;1.47;;;4.50;99.90;;;;;;5034820;28;20425;-70
2021/04/17 02:43:44;;;;;;;2.20;2.10;;;4.40;99.90;;;;;;5043938;28;20451;-69
2021/04/17 02:46:11;;;;;;;1.85;1.33;;;4.40;99.90;;;;;;5043070;28;20455;-69
2021/04/17 02:48:37;;;;;;;8.00;2.83;;;4.40;99.90;;;;;;5050327;28;20506;-70
2021/04/17 02:51:04;;;;;;;1.90;1.80;;;4.40;99.90;;;;;;5035326;28;20246;-71
2021/04/17 02:53:30;;;;;;;2.85;1.50;;;4.40;99.90;;;;;;5053341;28;20520;-70
2021/04/17 02:55:57;;;;;;;2.03;1.93;;;4.40;99.90;;;;;;5054499;28;20197;-70
2021/04/17 02:58:23;;;;;;;1.98;1.77;;;4.40;99.90;;;;;;5037803;28;20439;-70
2021/04/17 03:00:49;;;;;;;1.77;0.77;;;4.50;99.90;;;;;;5038749;28;20635;-70
2021/04/17 03:03:15;;;;;;;1.90;1.80;;;4.50;99.90;;;;;;5039462;28;20174;-71
2021/04/17 03:05:40;;;;;;;2.27;2.17;;;4.50;99.90;;;;;;5034584;28;20735;-70
2021/04/17 03:08:07;;;;;;;1.90;1.80;;;4.50;99.90;;;;;;5047802;28;20219;-70
2021/04/17 03:10:33;;;;;;;1.98;1.05;;;4.50;99.90;;;;;;5041377;28;20186;-70
2021/04/17 03:12:59;;;;;;;4.47;2.60;;;4.50;99.90;;;;;;5046232;28;20222;-70
2021/04/17 03:15:24;;;;;;;2.57;2.37;;;4.50;99.90;;;;;;5054179;28;20165;-71
2021/04/17 03:17:50;;;;;;;1.70;1.60;;;4.50;99.90;;;;;;5044099;28;20420;-70
2021/04/17 03:20:16;;;;;;;2.17;1.97;;;4.50;99.90;;;;;;5034566;28;20502;-71
2021/04/17 03:22:41;;;;;;;1.93;1.83;;;4.50;99.90;;;;;;5042651;28;20181;-71
2021/04/17 03:25:09;;;;;;;2.63;2.50;;;4.50;99.90;;;;;;5042563;28;20209;-71
2021/04/17 03:27:36;;;;;;;2.22;1.42;;;4.50;99.90;;;;;;5047789;28;20300;-70
2021/04/17 03:30:07;;;;;;;1.42;1.33;;;4.50;99.90;;;;;;5054398;28;20173;-70
2021/04/17 03:32:34;;;;;;;1.38;1.27;;;4.50;99.90;;;;;;5041204;28;20193;-71
2021/04/17 03:34:59;;;;;;;2.40;2.20;;;4.60;99.90;;;;;;5033944;28;20253;-70
2021/04/17 03:37:25;;;;;;;1.23;1.17;;;4.60;99.90;;;;;;5043448;28;20626;-69
2021/04/17 03:39:51;;;;;;;1.88;1.77;;;4.60;99.90;;;;;;5043014;28;20260;-70
2021/04/17 03:42:17;;;;;;;1.20;1.20;;;4.60;99.90;;;;;;5043166;28;20256;-71
2021/04/17 03:44:42;;;;;;;2.03;1.83;;;4.60;99.90;;;;;;5053740;28;20208;-70
2021/04/17 03:47:08;;;;;;;1.47;1.47;;;4.60;99.90;;;;;;5045692;28;20252;-70
2021/04/17 03:49:34;;;;;;;3.80;3.50;;;4.60;99.90;;;;;;5034095;28;20171;-70
2021/04/17 03:51:59;;;;;;;1.13;1.07;;;4.50;99.90;;;;;;5046302;28;20166;-70
2021/04/17 03:54:25;;;;;;;2.40;2.00;;;4.50;99.90;;;;;;5033501;28;20675;-71
2021/04/17 03:56:50;;;;;;;2.37;2.10;;;4.50;99.90;;;;;;5037764;28;20189;-71
2021/04/17 03:59:16;;;;;;;1.23;0.83;;;4.40;99.90;;;;;;5053601;28;20271;-70
2021/04/17 04:01:42;;;;;;;1.20;1.13;;;4.40;99.90;;;;;;5052848;28;20228;-71
2021/04/17 04:04:08;;;;;;;5.13;2.83;;;4.30;99.90;;;;;;5033722;28;20421;-70
2021/04/17 04:06:34;;;;;;;1.63;1.63;;;4.30;99.90;;;;;;5034274;28;20463;-70
2021/04/17 04:08:59;;;;;;;1.00;1.00;;;4.30;99.90;;;;;;5033998;28;20452;-70
2021/04/17 04:11:25;;;;;;;2.80;2.60;;;4.30;99.90;;;;;;5034867;28;20862;-70
2021/04/17 04:13:51;;;;;;;2.73;2.53;;;4.40;99.90;;;;;;5052083;28;20173;-69
2021/04/17 04:16:17;;;;;;;1.57;1.47;;;4.40;99.90;;;;;;5042089;28;20491;-72
2021/04/17 04:18:43;;;;;;;2.20;1.80;;;4.40;99.90;;;;;;5033691;28;20629;-71
2021/04/17 04:21:08;;;;;;;2.60;2.40;;;4.50;99.90;;;;;;5040973;28;20431;-72
2021/04/17 04:23:34;;;;;;;2.50;1.83;;;4.50;99.90;;;;;;5053319;28;20177;-70
2021/04/17 04:25:59;;;;;;;2.13;2.03;;;4.50;99.90;;;;;;5048134;28;20204;-70
2021/04/17 04:28:25;;;;;;;1.00;1.00;;;4.50;99.90;;;;;;5053045;28;20556;-72
2021/04/17 04:30:51;;;;;;;2.00;1.90;;;4.50;99.90;;;;;;5035162;28;20608;-71
2021/04/17 04:33:17;;;;;;;3.27;1.70;;;4.50;99.90;;;;;;5032263;28;20162;-71
2021/04/17 04:35:42;;;;;;;2.07;1.80;;;4.50;99.90;;;;;;5048694;28;20531;-71
2021/04/17 04:38:08;;;;;;;3.20;2.80;;;4.50;99.90;;;;;;5051877;28;20174;-71
2021/04/17 04:40:34;;;;;;;2.57;1.00;;;4.50;99.90;;;;;;5050609;28;20170;-71
2021/04/17 04:42:59;;;;;;;1.90;1.80;;;4.50;99.90;;;;;;5033446;28;20906;-70
2021/04/17 04:45:25;;;;;;;2.10;1.80;;;4.50;99.90;;;;;;5043899;28;20212;-71
2021/04/17 04:47:51;;;;;;;2.60;2.40;;;4.60;99.90;;;;;;5053029;28;20200;-71
2021/04/17 04:50:17;;;;;;;1.83;1.80;;;4.50;99.90;;;;;;5041973;28;20185;-70
2021/04/17 04:52:42;;;;;;;2.50;2.30;;;4.60;99.90;;;;;;5033110;28;20166;-71
2021/04/17 04:55:08;;;;;;;2.30;2.20;;;4.50;99.90;;;;;;5041703;28;20416;-72
2021/04/17 04:57:34;;;;;;;1.23;1.23;;;4.50;99.90;;;;;;5033287;28;20252;-70
2021/04/17 05:00:00;;;;;;;1.63;1.53;;;4.60;99.90;;;;;;5040545;28;20583;-71
2021/04/17 05:02:26;;;;;;;4.73;1.83;;;4.60;99.90;;;;;;5053105;28;20248;-71
2021/04/17 05:04:51;;;;;;;1.83;1.63;;;4.60;99.90;;;;;;5049070;28;20173;-70
2021/04/17 05:07:17;;;;;;;1.63;1.53;;;4.70;99.90;;;;;;5034760;28;20561;-72
2021/04/17 05:09:43;;;;;;;2.70;2.50;;;4.60;99.90;;;;;;5035497;28;20260;-71
2021/04/17 05:12:09;;;;;;;2.70;2.60;;;4.80;99.90;;;;;;5052663;28;20925;-71
2021/04/17 05:14:35;;;;;;;3.42;2.70;;;4.90;99.90;;;;;;5049751;28;20185;-72
2021/04/17 05:17:00;;;;;;;3.43;2.33;;;4.90;99.90;;;;;;5031733;28;20664;-71
2021/04/17 05:19:26;;;;;;;1.23;1.13;;;4.90;99.90;;;;;;5033380;28;20182;-72
2021/04/17 05:21:52;;;;;;;1.90;1.53;;;4.90;99.90;;;;;;5052973;28;20755;-72
2021/04/17 05:24:18;;;;;;;2.60;2.40;;;4.90;99.90;;;;;;5052473;28;20166;-70
2021/04/17 05:26:43;;;;;;;1.60;1.50;;;4.90;99.90;;;;;;5033298;28;20456;-70
2021/04/17 05:29:09;;;;;;;3.17;2.73;;;4.90;99.90;;;;;;5034382;28;20166;-71
2021/04/17 05:31:35;;;;;;;1.90;1.77;;;4.80;99.90;;;;;;5040174;28;20178;-71
2021/04/17 05:34:07;;;;;;;2.47;1.93;;;4.80;99.90;;;;;;5033181;28;20252;-71
2021/04/17 05:36:35;;;;;;;2.15;1.83;;;4.90;99.90;;;;;;5036697;28;20425;-70
2021/04/17 05:39:01;;;;;;;3.65;2.22;;;5.10;99.90;;;;;;5036488;28;20166;-72
2021/04/17 05:41:27;;;;;;;2.58;2.45;;;5.10;99.90;;;;;;5055374;28;20656;-71
2021/04/17 05:43:53;;;;;;;2.37;2.10;;;5.20;99.90;;;;;;5056024;28;20227;-72
2021/04/17 05:46:19;;;;;;;3.30;3.05;;;5.20;99.90;;;;;;5038088;28;20228;-71
2021/04/17 05:48:45;;;;;;;2.00;1.67;;;5.30;99.90;;;;;;5036273;28;20261;-71
2021/04/17 05:51:10;;;;;;;3.70;1.47;;;5.30;99.90;;;;;;5051992;28;20416;-73
2021/04/17 05:53:36;;;;;;;3.63;2.43;;;5.40;99.90;;;;;;5056102;28;20166;-72
2021/04/17 05:56:02;;;;;;;2.33;2.17;;;5.50;99.90;;;;;;5039800;28;20657;-71
2021/04/17 05:58:28;;;;;;;3.93;2.80;;;5.50;99.90;;;;;;5035907;28;20592;-73
2021/04/17 06:00:53;;;;;;;5.90;1.27;;;5.60;99.90;;;;;;5036515;28;20444;-73
2021/04/17 06:03:19;;;;;;;3.20;2.30;;;5.70;99.90;;;;;;5035912;28;20240;-71
2021/04/17 06:05:45;;;;;;;4.80;3.23;;;5.70;99.90;;;;;;5046013;28;20191;-72
2021/04/17 06:08:10;;;;;;;3.13;2.67;;;5.90;99.90;;;;;;5055913;28;20661;-70
2021/04/17 06:10:36;;;;;;;1.20;1.20;;;5.90;99.90;;;;;;5046407;28;20174;-72
2021/04/17 06:13:01;;;;;;;1.73;1.60;;;6.00;99.90;;;;;;5035776;28;20258;-73
2021/04/17 06:15:27;;;;;;;2.00;1.87;;;6.10;99.90;;;;;;5036163;28;20176;-72
2021/04/17 06:17:53;;;;;;;3.57;1.60;;;6.20;99.90;;;;;;5035688;28;20185;-71
2021/04/17 06:20:18;;;;;;;1.70;1.43;;;6.20;99.90;;;;;;5035479;28;20178;-70
2021/04/17 06:22:44;;;;;;;3.00;2.70;;;6.20;99.90;;;;;;5035942;28;20174;-70
2021/04/17 06:25:11;;;;;;;2.50;2.20;;;6.20;99.90;;;;;;5038715;28;20181;-72
2021/04/17 06:27:37;;;;;;;1.50;1.42;;;6.30;99.90;;;;;;5055474;28;20615;-72
2021/04/17 06:30:04;;;;;;;5.10;2.60;;;6.40;99.90;;;;;;5050023;28;20209;-70
2021/04/17 06:32:30;;;;;;;3.60;2.67;;;6.50;99.90;;;;;;5055269;28;20227;-73
2021/04/17 06:34:56;;;;;;;2.30;2.10;;;6.60;99.90;;;;;;5052605;28;20563;-72
2021/04/17 06:37:21;;;;;;;7.00;3.43;;;6.70;99.90;;;;;;5034033;28;20201;-72
2021/04/17 06:39:47;;;;;;;2.43;1.50;;;6.80;99.90;;;;;;5035345;28;20185;-70
2021/04/17 06:42:15;;;;;;;2.03;1.83;;;7.00;99.90;;;;;;5054132;28;20240;-69
2021/04/17 06:44:42;;;;;;;5.20;2.60;;;7.20;99.90;;;;;;5054792;28;20215;-70
2021/04/17 06:47:15;;;;;;;9.40;2.83;;;7.50;99.90;;;;;;5035630;28;20264;-71
2021/04/17 06:49:42;;;;;;;6.28;2.75;;;7.70;99.90;;;;;;5035334;28;20540;-70
2021/04/17 06:52:11;;;;;;;7.05;3.33;;;8.10;99.90;;;;;;5052170;28;20185;-69
2021/04/17 06:54:38;;;;;;;3.10;2.47;;;8.20;99.90;;;;;;5035690;28;20624;-70
2021/04/17 06:57:05;;;;;;;3.65;2.58;;;8.30;99.90;;;;;;5050631;28;20208;-72
2021/04/17 06:59:32;;;;;;;5.90;2.85;;;8.20;99.90;;;;;;5054580;28;20282;-71
2021/04/17 07:01:58;;;;;;;5.30;3.25;;;8.30;99.90;;;;;;5039789;28;20189;-72
2021/04/17 07:04:25;;;;;;;3.35;3.05;;;8.40;99.90;;;;;;5034561;28;20190;-71
2021/04/17 07:06:52;;;;;;;4.70;3.88;;;8.70;99.90;;;;;;5047463;28;20212;-72
2021/04/17 07:09:22;;;;;;;10.57;5.43;;;8.90;99.90;;;;;;5036476;28;20178;-71
2021/04/17 07:11:49;;;;;;;4.07;2.97;;;9.20;99.90;;;;;;5046647;28;20197;-71
2021/04/17 07:14:17;;;;;;;5.05;3.88;;;9.50;99.90;;;;;;5054328;28;20184;-71
2021/04/17 07:17:03;;;;;;;5.57;3.30;;;9.80;99.10;;;;;;5048914;28;20201;-71
2021/04/17 07:19:47;;;;;;;6.43;3.25;;;9.90;98.50;;;;;;5054468;28;20260;-70
2021/04/17 07:22:19;;;;;;;6.10;3.83;;;10.30;97.40;;;;;;5034987;28;20185;-68
2021/04/17 07:24:47;;;;;;;9.02;5.50;;;10.50;96.00;;;;;;5034251;28;20272;-69
2021/04/17 07:27:44;;;;;;;10.80;6.63;;;10.80;95.50;;;;;;5052172;28;20209;-74
2021/04/17 07:30:16;;;;;;;8.57;5.17;;;11.40;95.30;;;;;;5052924;28;20939;-69
2021/04/17 07:33:11;;;;;;;8.30;4.27;;;12.00;94.00;;;;;;5034212;28;20415;-68
2021/04/17 07:35:45;;;;;;;8.70;4.20;;;12.50;92.50;;;;;;5037135;28;20969;-71
2021/04/17 07:38:16;;;;;;;10.13;4.90;;;12.80;91.80;;;;;;5044870;28;20420;-69
2021/04/17 07:41:04;;;;;;;8.93;4.90;;;12.70;90.50;;;;;;5038097;28;20419;-67
2021/04/17 07:43:49;;;;;;;10.53;5.07;;;12.90;90.90;;;;;;5052596;28;20462;-68
2021/04/17 07:46:24;;;;;;;10.20;5.67;;;13.40;90.60;;;;;;5047606;28;20508;-68
2021/04/17 07:48:51;;;;;;;8.87;5.10;;;13.80;88.80;;;;;;5052893;28;20413;-68
2021/04/17 07:51:17;;;;;;;10.47;5.23;;;14.00;86.10;;;;;;5040868;28;20997;-68
2021/04/17 07:53:44;;;;;;;9.40;5.27;;;14.40;87.00;;;;;;5048576;28;20422;-69
2021/04/17 07:56:32;;;;;;;9.97;4.80;;;14.80;84.60;;;;;;5042089;28;20445;-69
2021/04/17 07:59:04;;;;;;;10.00;5.00;;;15.30;81.90;;;;;;5033581;28;20507;-68
2021/04/17 08:01:32;;;;;;;8.67;5.33;;;15.00;79.20;;;;;;5036646;28;20516;-68
2021/04/17 08:04:00;;;;;;;7.40;3.93;;;14.70;80.00;;;;;;5033075;28;20824;-71
2021/04/17 08:06:27;;;;;;;9.20;4.50;;;14.70;79.20;;;;;;5045176;28;21030;-72
2021/04/17 08:08:54;;;;;;;8.00;4.40;;;14.40;78.50;;;;;;5053451;28;20410;-72
2021/04/17 08:11:21;;;;;;;8.50;3.90;;;14.00;78.50;;;;;;5051859;28;20420;-70
2021/04/17 08:13:49;;;;;;;9.00;4.40;;;13.60;78.00;;;;;;5052513;28;20926;-74
2021/04/17 08:16:16;;;;;;;13.50;4.57;;;13.10;79.90;;;;;;5033397;28;20424;-72
2021/04/17 08:18:43;;;;;;;8.23;4.50;;;12.60;82.50;;;;;;5033350;28;20384;-73
2021/04/17 08:21:13;;;;;;;10.07;5.33;;;12.90;83.10;;;;;;5052204;28;20457;-69
2021/04/17 08:23:42;;;;;;;12.30;4.63;;;12.90;83.90;;;;;;5053442;28;20419;-72
2021/04/17 08:26:09;;;;;;;11.60;4.77;;;13.20;84.00;;;;;;5043985;28;20439;-71
2021/04/17 08:28:50;;;;;;;7.93;4.00;;;13.60;83.90;;;;;;5053400;28;20401;-72
2021/04/17 08:31:27;;;;;;;9.17;4.93;;;13.80;82.00;;;;;;5033631;28;21005;-72
2021/04/17 08:34:20;;;;;;;7.33;3.97;;;13.80;82.70;;;;;;5033006;28;20408;-71
2021/04/17 08:36:52;;;;;;;8.30;4.40;;;13.80;81.60;;;;;;5032902;28;20504;-72
2021/04/17 08:39:36;;;;;;;8.90;4.60;;;13.40;80.10;;;;;;5033244;28;20431;-70
2021/04/17 08:42:15;;;;;;;8.67;4.07;;;13.00;80.20;;;;;;5051562;28;20455;-71
2021/04/17 08:44:43;;;;;;;8.70;4.37;;;12.60;81.30;;;;;;5046596;28;20597;-69
2021/04/17 08:47:12;;;;;;;7.40;3.90;;;12.20;84.30;;;;;;5032799;28;20880;-70
2021/04/17 08:49:40;;;;;;;13.07;4.30;;;12.20;84.00;;;;;;5036004;28;20514;-72
2021/04/17 08:52:08;;;;;;;8.60;4.20;;;12.20;83.10;;;;;;5052255;28;20501;-72
2021/04/17 08:54:36;;;;;;;9.17;4.63;;;12.20;84.40;;;;;;5051140;28;20547;-73
2021/04/17 08:57:21;;;;;;;6.20;3.80;;;12.10;83.30;;;;;;5052776;28;20878;-72
2021/04/17 08:59:56;;;;;;;7.27;2.67;;;12.20;82.60;;;;;;5047598;28;20436;-72
2021/04/17 09:02:23;;;;;;;5.90;2.73;;;12.10;81.60;;;;;;5032760;28;20501;-73
2021/04/17 09:05:08;;;;;;;6.30;3.43;;;12.10;79.40;;;;;;5045125;28;20824;-74
2021/04/17 09:07:41;;;;;;;6.23;2.90;;;12.10;80.40;;;;;;5032975;28;20480;-71
2021/04/17 09:10:25;;;;;;;7.40;3.20;;;12.30;80.10;;;;;;5040256;28;20437;-72
2021/04/17 09:13:09;;;;;;;8.63;4.23;;;12.60;79.40;;;;;;5036600;28;20407;-72
2021/04/17 09:15:57;;;;;;;6.87;3.10;;;12.90;78.80;;;;;;5041112;28;20770;-77
2021/04/17 09:18:32;;;;;;;8.40;2.90;;;13.90;76.30;;;;;;5063582;28;20411;-76
2021/04/17 09:20:58;;;;;;;5.80;2.80;;;14.60;74.50;;;;;;5064418;28;20419;-69
2021/04/17 09:23:46;;;;;;;7.77;3.50;;;15.00;73.00;;;;;;5056478;28;20419;-70
2021/04/17 09:26:45;;;;;;;7.37;3.40;;;15.10;72.40;;;;;;5043569;28;20444;-69
2021/04/17 09:29:13;;;;;;;6.47;3.57;;;14.70;71.50;;;;;;5035256;28;20781;-71
2021/04/17 09:31:39;;;;;;;6.90;3.03;;;14.40;73.10;;;;;;5051619;28;20828;-74
2021/04/17 09:34:11;;;;;;;7.80;2.80;;;14.10;73.70;;;;;;5054698;28;20412;-71
2021/04/17 09:36:37;;;;;;;9.13;3.20;;;13.50;71.80;;;;;;5049788;28;21205;-71
2021/04/17 09:39:23;;;;;;;7.10;2.47;;;13.10;73.30;;;;;;5046342;28;20422;-71
2021/04/17 09:41:53;;;;;;;9.10;3.30;;;12.70;75.60;;;;;;5054194;28;20462;-70
2021/04/17 09:44:20;;;;;;;8.53;3.00;;;13.00;76.50;;;;;;5044128;28;20456;-68
2021/04/17 09:46:47;;;;;;;6.47;3.07;;;13.40;78.20;;;;;;5063460;28;20458;-69
2021/04/17 09:49:39;;;;;;;6.80;3.10;;;13.60;78.10;;;;;;5056061;28;20445;-69
2021/04/17 09:52:06;;;;;;;7.10;3.10;;;13.60;77.10;;;;;;5043759;28;20423;-67
2021/04/17 09:54:31;;;;;;;6.27;2.80;;;13.40;75.40;;;;;;5035687;28;20432;-69
2021/04/17 09:57:03;;;;;;;7.13;3.43;;;13.20;76.20;;;;;;5046316;28;20864;-68
2021/04/17 09:59:29;;;;;;;7.10;2.90;;;12.90;77.90;;;;;;5042604;28;20197;-70
2021/04/17 10:01:57;;;;;;;6.90;3.30;;;12.90;77.50;;;;;;5043759;28;20480;-68
2021/04/17 10:04:48;;;;;;;7.10;2.90;;;12.70;78.30;;;;;;5055614;28;20181;-67
2021/04/17 10:07:14;;;;;;;6.87;2.67;;;12.60;77.60;;;;;;5054055;28;20519;-68
2021/04/17 10:09:43;;;;;;;5.37;2.10;;;12.40;80.40;;;;;;5055914;28;20418;-71
2021/04/17 10:12:09;;;;;;;6.20;2.37;;;12.40;81.10;;;;;;5037745;28;20487;-71
2021/04/17 10:14:35;;;;;;;5.67;2.70;;;12.40;79.00;;;;;;5039893;28;20460;-71
2021/04/17 10:17:02;;;;;;;5.57;2.83;;;12.50;77.90;;;;;;5035725;28;20795;-73
2021/04/17 10:19:30;;;;;;;9.63;2.53;;;12.60;78.60;;;;;;5044865;28;20426;-69
2021/04/17 10:21:58;;;;;;;5.03;2.17;;;12.60;76.50;;;;;;5049530;28;20415;-72
2021/04/17 10:24:27;;;;;;;7.30;2.47;;;12.50;75.40;;;;;;5040861;28;21004;-72
2021/04/17 10:27:10;;;;;;;7.33;2.30;;;12.70;74.90;;;;;;5055103;28;20449;-69
2021/04/17 10:29:48;;;;;;;5.63;3.10;;;12.80;74.00;;;;;;5042434;28;20502;-72
2021/04/17 10:32:23;;;;;;;5.97;2.80;;;13.00;73.60;;;;;;5035720;28;20416;-71
2021/04/17 10:35:08;;;;;;;6.73;2.93;;;13.30;73.70;;;;;;5043341;28;20514;-73
2021/04/17 10:37:44;;;;;;;6.40;2.30;;;13.50;71.80;;;;;;5055120;28;20424;-73
2021/04/17 10:40:11;;;;;;;6.27;2.67;;;14.00;73.00;;;;;;5041656;28;20482;-71
2021/04/17 10:42:48;;;;;;;5.53;2.60;;;14.30;70.40;;;;;;5042923;28;20497;-70
2021/04/17 10:45:23;;;;;;;5.30;2.50;;;14.60;69.70;;;;;;5035988;28;20418;-72
2021/04/17 10:48:14;;;;;;;11.20;3.40;;;14.80;68.10;;;;;;5055260;28;20490;-70
2021/04/17 10:50:53;;;;;;;5.93;2.60;;;14.60;69.90;;;;;;5050395;28;20420;-69
2021/04/17 10:53:25;;;;;;;6.57;3.23;;;13.80;70.20;;;;;;5035031;28;20400;-67
2021/04/17 10:55:54;;;;;;;7.60;3.30;;;13.30;73.30;;;;;;5039834;28;20801;-69
2021/04/17 10:58:30;;;;;;;5.40;2.30;;;12.80;73.40;;;;;;5042634;28;20444;-70
2021/04/17 11:01:03;;;;;;;7.37;2.87;;;12.20;73.40;;;;;;5040243;28;20433;-69
2021/04/17 11:03:31;;;;;;;5.77;3.37;;;11.90;75.00;;;;;;5054008;28;20904;-70
2021/04/17 11:06:15;;;;;;;7.97;2.92;;;11.70;75.70;;;;;;5048904;28;20452;-72
2021/04/17 11:08:42;;;;;;;8.00;2.17;;;11.60;76.20;;;;;;5035013;28;20170;-71
2021/04/17 11:11:10;;;;;;;6.63;3.00;;;11.60;76.80;;;;;;5040745;28;20175;-68
2021/04/17 11:13:39;;;;;;;6.10;2.35;;;11.70;76.60;;;;;;5038195;28;20414;-69
2021/04/17 11:16:05;;;;;;;5.75;2.20;;;11.80;76.40;;;;;;5039081;28;20202;-71
2021/04/17 11:18:36;;;;;;;8.07;3.80;;;12.10;76.10;;;;;;5053319;28;20585;-70
2021/04/17 11:21:11;;;;;;;5.53;1.90;;;12.30;75.40;;;;;;5049590;28;20452;-67
2021/04/17 11:23:46;;;;;;;5.83;2.53;;;12.50;73.30;;;;;;5034586;28;20403;-67
2021/04/17 11:26:22;;;;;;;4.47;1.83;;;12.60;72.10;;;;;;5037492;28;20469;-66
2021/04/17 11:28:53;;;;;;;4.73;2.20;;;12.60;71.30;;;;;;5036334;28;20404;-66
2021/04/17 11:31:33;;;;;;;5.30;2.07;;;12.40;72.30;;;;;;5039154;28;20416;-67
2021/04/17 11:34:02;;;;;;;5.00;2.37;;;12.30;71.40;;;;;;5053995;28;20439;-65
2021/04/17 11:36:30;;;;;;;4.93;1.85;;;12.20;72.10;;;;;;5047858;28;20452;-67
2021/04/17 11:38:57;;;;;;;6.47;2.47;;;12.30;72.50;;;;;;5034173;28;20171;-69
2021/04/17 11:41:24;;;;;;;7.20;2.30;;;12.70;72.20;;;;;;5038502;28;20516;-70
2021/04/17 11:43:50;;;;;;;5.33;2.60;;;13.00;71.70;;;;;;5052998;28;20437;-68
2021/04/17 11:46:17;;;;;;;5.30;2.40;;;13.40;72.00;;;;;;5050073;28;20486;-69
2021/04/17 11:48:49;;;;;;;7.13;2.90;;;13.80;69.60;;;;;;5033952;28;20412;-70
2021/04/17 11:51:15;;;;;;;5.83;2.00;;;13.80;68.10;;;;;;5035178;28;20450;-70
2021/04/17 11:53:40;;;;;;;5.80;2.47;;;13.90;67.10;;;;;;5053770;28;20406;-70
2021/04/17 11:56:06;;;;;;;6.43;2.20;;;13.80;65.70;;;;;;5051143;28;20200;-68
2021/04/17 11:58:32;;;;;;;5.50;1.90;;;13.70;66.30;;;;;;5033779;28;20216;-68
2021/04/17 12:00:58;;;;;;;7.03;2.40;;;13.50;67.90;;;;;;5032433;28;20509;-66
2021/04/17 12:03:24;;;;;;;7.47;3.47;;;13.20;70.20;;;;;;5052826;28;20180;-70
2021/04/17 12:05:52;;;;;;;7.30;2.03;;;13.10;70.70;;;;;;5053149;28;20503;-72
2021/04/17 12:08:18;;;;;;;5.00;1.70;;;13.00;68.70;;;;;;5035272;28;20231;-71
2021/04/17 12:10:44;;;;;;;7.20;2.90;;;13.00;68.70;;;;;;5037176;28;20415;-69
2021/04/17 12:13:10;;;;;;;6.23;2.67;;;13.10;67.60;;;;;;5036482;28;20433;-70
2021/04/17 12:15:36;;;;;;;5.83;1.83;;;13.30;65.10;;;;;;5036694;28;20488;-67
2021/04/17 12:18:03;;;;;;;5.17;1.73;;;13.40;64.40;;;;;;5051487;28;20427;-68
2021/04/17 12:20:29;;;;;;;5.83;2.30;;;13.50;63.10;;;;;;5050543;28;20456;-72
2021/04/17 12:22:56;;;;;;;5.03;1.93;;;13.70;64.00;;;;;;5033408;28;20837;-69
2021/04/17 12:25:22;;;;;;;6.60;1.90;;;13.60;64.00;;;;;;5041606;28;20183;-65
2021/04/17 12:27:48;;;;;;;6.03;2.37;;;13.40;63.70;;;;;;5069228;28;20541;-68
2021/04/17 12:30:14;;;;;;;5.47;2.30;;;13.10;66.20;;;;;;5050458;28;20980;-67
2021/04/17 12:32:41;;;;;;;4.53;1.87;;;13.10;65.40;;;;;;5057254;28;20170;-69
2021/04/17 12:35:09;;;;;;;4.67;1.83;;;13.00;66.30;;;;;;5072882;28;20455;-69
2021/04/17 12:37:35;;;;;;;5.10;2.20;;;13.00;68.70;;;;;;5054119;28;20198;-68
2021/04/17 12:40:01;;;;;;;5.73;2.10;;;12.90;68.00;;;;;;5050791;28;20423;-69
2021/04/17 12:42:27;;;;;;;5.73;2.10;;;12.90;68.40;;;;;;5048139;28;20417;-69
2021/04/17 12:44:52;;;;;;;5.50;2.00;;;12.90;67.40;;;;;;5050085;28;20445;-69
2021/04/17 12:47:18;;;;;;;4.67;1.30;;;12.90;68.80;;;;;;5048796;28;20207;-71
2021/04/17 12:49:44;;;;;;;5.33;2.00;;;13.00;68.70;;;;;;5044419;28;20176;-68
2021/04/17 12:52:13;;;;;;;6.37;2.47;;;13.20;69.20;;;;;;5033152;28;20415;-69
2021/04/17 12:54:40;;;;;;;5.43;1.87;;;13.50;68.90;;;;;;5041083;28;20177;-67
2021/04/17 12:57:06;;;;;;;4.53;2.20;;;13.70;67.90;;;;;;5050847;28;20797;-67
2021/04/17 12:59:31;;;;;;;5.13;1.83;;;13.90;68.30;;;;;;5049135;28;20247;-75
2021/04/17 13:01:57;;;;;;;5.13;1.47;;;14.00;65.90;;;;;;5033102;28;20432;-70
2021/04/17 13:04:23;;;;;;;4.73;1.57;;;14.00;62.90;;;;;;5044839;28;20181;-69